sensor_id;sensor_type;location;lat;lon;timestamp;P1;durP1;ratioP1;P2;durP2;ratioP2
22650;SDS011;11492;42.646;23.400;2023-02-27T00:00:16;40.47;;;12.00;;
22650;SDS011;11492;42.646;23.400;2023-02-27T00:02:44;62.08;;;13.55;;
22650;SDS011;11492;42.646;23.400;2023-02-27T00:05:10;43.38;;;12.90;;
22650;SDS011;11492;42.646;23.400;2023-02-27T00:07:36;49.10;;;13.65;;
22650;SDS011;11492;42.646;23.400;2023-02-27T00:10:02;52.78;;;13.30;;
22650;SDS011;11492;42.646;23.400;2023-02-27T00:12:29;53.30;;;12.02;;
22650;SDS011;11492;42.646;23.400;2023-02-27T00:15:01;56.97;;;13.00;;
22650;SDS011;11492;42.646;23.400;2023-02-27T00:17:31;55.38;;;12.82;;
22650;SDS011;11492;42.646;23.400;2023-02-27T00:19:56;47.03;;;11.30;;
22650;SDS011;11492;42.646;23.400;2023-02-27T00:22:22;48.78;;;12.45;;
22650;SDS011;11492;42.646;23.400;2023-02-27T00:24:47;55.45;;;11.98;;
22650;SDS011;11492;42.646;23.400;2023-02-27T00:27:13;39.78;;;10.52;;
22650;SDS011;11492;42.646;23.400;2023-02-27T00:29:38;52.53;;;11.35;;
22650;SDS011;11492;42.646;23.400;2023-02-27T00:32:04;46.75;;;11.65;;
22650;SDS011;11492;42.646;23.400;2023-02-27T00:34:30;56.80;;;11.80;;
22650;SDS011;11492;42.646;23.400;2023-02-27T00:36:55;47.13;;;11.32;;
22650;SDS011;11492;42.646;23.400;2023-02-27T00:39:20;45.10;;;11.40;;
22650;SDS011;11492;42.646;23.400;2023-02-27T00:41:46;37.90;;;10.18;;
22650;SDS011;11492;42.646;23.400;2023-02-27T00:44:11;52.50;;;11.15;;
22650;SDS011;11492;42.646;23.400;2023-02-27T00:46:37;53.63;;;11.15;;
22650;SDS011;11492;42.646;23.400;2023-02-27T00:49:02;40.15;;;10.15;;
22650;SDS011;11492;42.646;23.400;2023-02-27T00:51:28;55.60;;;11.30;;
22650;SDS011;11492;42.646;23.400;2023-02-27T00:53:53;57.58;;;11.75;;
22650;SDS011;11492;42.646;23.400;2023-02-27T00:56:18;41.75;;;10.82;;
22650;SDS011;11492;42.646;23.400;2023-02-27T00:58:44;45.92;;;10.70;;
22650;SDS011;11492;42.646;23.400;2023-02-27T01:01:09;53.83;;;11.93;;
22650;SDS011;11492;42.646;23.400;2023-02-27T01:03:34;45.92;;;10.60;;
22650;SDS011;11492;42.646;23.400;2023-02-27T01:06:00;43.55;;;11.32;;
22650;SDS011;11492;42.646;23.400;2023-02-27T01:08:25;47.53;;;11.65;;
22650;SDS011;11492;42.646;23.400;2023-02-27T01:10:52;55.55;;;12.10;;
22650;SDS011;11492;42.646;23.400;2023-02-27T01:13:18;47.35;;;10.50;;
22650;SDS011;11492;42.646;23.400;2023-02-27T01:15:44;45.97;;;11.52;;
22650;SDS011;11492;42.646;23.400;2023-02-27T01:18:09;57.42;;;11.43;;
22650;SDS011;11492;42.646;23.400;2023-02-27T01:20:35;63.08;;;11.55;;
22650;SDS011;11492;42.646;23.400;2023-02-27T01:23:00;53.88;;;11.93;;
22650;SDS011;11492;42.646;23.400;2023-02-27T01:25:26;37.50;;;10.73;;
22650;SDS011;11492;42.646;23.400;2023-02-27T01:27:51;56.08;;;11.52;;
22650;SDS011;11492;42.646;23.400;2023-02-27T01:30:16;54.58;;;11.68;;
22650;SDS011;11492;42.646;23.400;2023-02-27T01:32:42;43.55;;;11.50;;
22650;SDS011;11492;42.646;23.400;2023-02-27T01:35:07;49.60;;;11.95;;
22650;SDS011;11492;42.646;23.400;2023-02-27T01:37:33;43.28;;;11.38;;
22650;SDS011;11492;42.646;23.400;2023-02-27T01:39:58;54.63;;;11.13;;
22650;SDS011;11492;42.646;23.400;2023-02-27T01:42:25;52.50;;;11.35;;
22650;SDS011;11492;42.646;23.400;2023-02-27T01:47:41;52.35;;;12.38;;
22650;SDS011;11492;42.646;23.400;2023-02-27T01:50:15;55.85;;;11.77;;
22650;SDS011;11492;42.646;23.400;2023-02-27T01:52:43;69.63;;;12.68;;
22650;SDS011;11492;42.646;23.400;2023-02-27T01:55:13;56.50;;;12.50;;
22650;SDS011;11492;42.646;23.400;2023-02-27T01:57:40;63.47;;;13.02;;
22650;SDS011;11492;42.646;23.400;2023-02-27T02:00:08;43.85;;;11.75;;
22650;SDS011;11492;42.646;23.400;2023-02-27T02:02:37;62.10;;;11.82;;
22650;SDS011;11492;42.646;23.400;2023-02-27T02:05:06;53.50;;;11.88;;
22650;SDS011;11492;42.646;23.400;2023-02-27T02:07:32;48.58;;;12.32;;
22650;SDS011;11492;42.646;23.400;2023-02-27T02:10:00;53.63;;;13.15;;
22650;SDS011;11492;42.646;23.400;2023-02-27T02:12:34;54.17;;;12.32;;
22650;SDS011;11492;42.646;23.400;2023-02-27T02:15:02;47.80;;;12.38;;
22650;SDS011;11492;42.646;23.400;2023-02-27T02:32:29;22.58;;;3.97;;
22650;SDS011;11492;42.646;23.400;2023-02-27T02:43:30;38.60;;;8.23;;
22650;SDS011;11492;42.646;23.400;2023-02-27T02:49:22;29.85;;;5.32;;
22650;SDS011;11492;42.646;23.400;2023-02-27T02:54:39;12.32;;;2.78;;
22650;SDS011;11492;42.646;23.400;2023-02-27T02:57:22;10.50;;;2.15;;
22650;SDS011;11492;42.646;23.400;2023-02-27T03:02:28;8.25;;;1.88;;
22650;SDS011;11492;42.646;23.400;2023-02-27T03:05:09;8.13;;;1.35;;
22650;SDS011;11492;42.646;23.400;2023-02-27T03:07:42;4.47;;;0.80;;
22650;SDS011;11492;42.646;23.400;2023-02-27T03:10:28;4.80;;;0.85;;
22650;SDS011;11492;42.646;23.400;2023-02-27T03:13:05;1.92;;;0.85;;
22650;SDS011;11492;42.646;23.400;2023-02-27T03:15:39;2.03;;;0.60;;
22650;SDS011;11492;42.646;23.400;2023-02-27T03:18:47;1.80;;;0.57;;
22650;SDS011;11492;42.646;23.400;2023-02-27T03:21:26;2.55;;;0.70;;
22650;SDS011;11492;42.646;23.400;2023-02-27T03:23:58;4.28;;;0.65;;
22650;SDS011;11492;42.646;23.400;2023-02-27T03:26:30;3.17;;;0.63;;
22650;SDS011;11492;42.646;23.400;2023-02-27T03:29:01;8.15;;;1.30;;
22650;SDS011;11492;42.646;23.400;2023-02-27T03:34:31;7.93;;;4.10;;
22650;SDS011;11492;42.646;23.400;2023-02-27T03:39:43;8.93;;;4.13;;
22650;SDS011;11492;42.646;23.400;2023-02-27T03:45:04;8.68;;;3.95;;
22650;SDS011;11492;42.646;23.400;2023-02-27T03:47:30;9.70;;;4.05;;
22650;SDS011;11492;42.646;23.400;2023-02-27T03:49:57;12.30;;;4.63;;
22650;SDS011;11492;42.646;23.400;2023-02-27T03:52:23;10.95;;;4.30;;
22650;SDS011;11492;42.646;23.400;2023-02-27T03:54:54;12.23;;;4.95;;
22650;SDS011;11492;42.646;23.400;2023-02-27T03:57:23;8.52;;;3.90;;
22650;SDS011;11492;42.646;23.400;2023-02-27T03:59:49;7.65;;;4.20;;
22650;SDS011;11492;42.646;23.400;2023-02-27T04:02:15;15.55;;;4.30;;
22650;SDS011;11492;42.646;23.400;2023-02-27T04:04:41;13.60;;;5.32;;
22650;SDS011;11492;42.646;23.400;2023-02-27T04:15:39;14.30;;;5.32;;
22650;SDS011;11492;42.646;23.400;2023-02-27T04:21:46;8.90;;;4.07;;
22650;SDS011;11492;42.646;23.400;2023-02-27T04:27:02;8.50;;;4.40;;
22650;SDS011;11492;42.646;23.400;2023-02-27T04:35:05;11.35;;;5.13;;
22650;SDS011;11492;42.646;23.400;2023-02-27T04:37:57;8.77;;;4.35;;
22650;SDS011;11492;42.646;23.400;2023-02-27T04:40:50;11.48;;;5.32;;
22650;SDS011;11492;42.646;23.400;2023-02-27T04:43:16;9.95;;;5.00;;
22650;SDS011;11492;42.646;23.400;2023-02-27T04:45:46;13.80;;;5.18;;
22650;SDS011;11492;42.646;23.400;2023-02-27T04:48:17;9.48;;;5.47;;
22650;SDS011;11492;42.646;23.400;2023-02-27T04:50:49;8.18;;;4.97;;
22650;SDS011;11492;42.646;23.400;2023-02-27T04:55:50;9.88;;;4.97;;
22650;SDS011;11492;42.646;23.400;2023-02-27T04:58:26;10.05;;;5.45;;
22650;SDS011;11492;42.646;23.400;2023-02-27T05:01:00;11.23;;;5.72;;
22650;SDS011;11492;42.646;23.400;2023-02-27T05:03:31;9.75;;;5.20;;
22650;SDS011;11492;42.646;23.400;2023-02-27T05:06:00;7.70;;;4.90;;
22650;SDS011;11492;42.646;23.400;2023-02-27T05:08:37;9.25;;;5.13;;
22650;SDS011;11492;42.646;23.400;2023-02-27T05:11:16;7.47;;;5.20;;
22650;SDS011;11492;42.646;23.400;2023-02-27T05:13:54;12.82;;;5.70;;
22650;SDS011;11492;42.646;23.400;2023-02-27T05:19:28;9.35;;;5.68;;
22650;SDS011;11492;42.646;23.400;2023-02-27T05:22:08;10.80;;;5.50;;
22650;SDS011;11492;42.646;23.400;2023-02-27T05:25:05;15.40;;;9.00;;
22650;SDS011;11492;42.646;23.400;2023-02-27T05:32:45;10.45;;;6.05;;
22650;SDS011;11492;42.646;23.400;2023-02-27T05:35:27;14.27;;;5.63;;
22650;SDS011;11492;42.646;23.400;2023-02-27T05:40:32;12.63;;;6.70;;
22650;SDS011;11492;42.646;23.400;2023-02-27T05:43:17;11.55;;;6.90;;
22650;SDS011;11492;42.646;23.400;2023-02-27T05:45:47;11.88;;;6.55;;
22650;SDS011;11492;42.646;23.400;2023-02-27T05:48:20;12.05;;;6.70;;
22650;SDS011;11492;42.646;23.400;2023-02-27T05:50:49;12.73;;;7.35;;
22650;SDS011;11492;42.646;23.400;2023-02-27T05:53:17;15.13;;;7.60;;
22650;SDS011;11492;42.646;23.400;2023-02-27T05:55:47;14.70;;;8.15;;
22650;SDS011;11492;42.646;23.400;2023-02-27T05:58:29;11.10;;;6.68;;
22650;SDS011;11492;42.646;23.400;2023-02-27T06:01:00;10.93;;;7.07;;
22650;SDS011;11492;42.646;23.400;2023-02-27T06:03:30;11.40;;;6.40;;
22650;SDS011;11492;42.646;23.400;2023-02-27T06:05:59;9.30;;;5.60;;
22650;SDS011;11492;42.646;23.400;2023-02-27T06:08:27;10.80;;;5.90;;
22650;SDS011;11492;42.646;23.400;2023-02-27T06:10:53;8.90;;;5.43;;
22650;SDS011;11492;42.646;23.400;2023-02-27T06:13:21;12.40;;;6.20;;
22650;SDS011;11492;42.646;23.400;2023-02-27T06:15:48;11.57;;;5.95;;
22650;SDS011;11492;42.646;23.400;2023-02-27T06:18:14;10.25;;;5.82;;
22650;SDS011;11492;42.646;23.400;2023-02-27T06:20:41;10.70;;;5.18;;
22650;SDS011;11492;42.646;23.400;2023-02-27T06:23:07;9.43;;;5.82;;
22650;SDS011;11492;42.646;23.400;2023-02-27T06:25:33;11.35;;;5.88;;
22650;SDS011;11492;42.646;23.400;2023-02-27T06:27:59;8.73;;;5.30;;
22650;SDS011;11492;42.646;23.400;2023-02-27T06:30:24;11.85;;;5.43;;
22650;SDS011;11492;42.646;23.400;2023-02-27T06:32:50;8.43;;;4.80;;
22650;SDS011;11492;42.646;23.400;2023-02-27T06:35:15;7.78;;;4.43;;
22650;SDS011;11492;42.646;23.400;2023-02-27T06:37:41;6.53;;;4.53;;
22650;SDS011;11492;42.646;23.400;2023-02-27T06:40:07;6.85;;;4.32;;
22650;SDS011;11492;42.646;23.400;2023-02-27T06:42:36;7.43;;;5.07;;
22650;SDS011;11492;42.646;23.400;2023-02-27T06:45:02;7.13;;;4.90;;
22650;SDS011;11492;42.646;23.400;2023-02-27T06:47:28;9.63;;;5.50;;
22650;SDS011;11492;42.646;23.400;2023-02-27T06:49:54;8.60;;;5.28;;
22650;SDS011;11492;42.646;23.400;2023-02-27T06:52:19;8.93;;;5.60;;
22650;SDS011;11492;42.646;23.400;2023-02-27T06:54:45;6.88;;;4.38;;
22650;SDS011;11492;42.646;23.400;2023-02-27T06:57:10;7.95;;;5.13;;
22650;SDS011;11492;42.646;23.400;2023-02-27T06:59:35;8.43;;;5.30;;
22650;SDS011;11492;42.646;23.400;2023-02-27T07:02:01;11.70;;;4.97;;
22650;SDS011;11492;42.646;23.400;2023-02-27T07:04:26;8.43;;;5.03;;
22650;SDS011;11492;42.646;23.400;2023-02-27T07:06:52;7.53;;;4.35;;
22650;SDS011;11492;42.646;23.400;2023-02-27T07:09:17;8.02;;;4.88;;
22650;SDS011;11492;42.646;23.400;2023-02-27T07:11:43;7.78;;;4.70;;
22650;SDS011;11492;42.646;23.400;2023-02-27T07:14:08;13.60;;;5.90;;
22650;SDS011;11492;42.646;23.400;2023-02-27T07:16:34;9.43;;;5.55;;
22650;SDS011;11492;42.646;23.400;2023-02-27T07:18:59;17.55;;;5.60;;
22650;SDS011;11492;42.646;23.400;2023-02-27T07:21:25;9.27;;;4.38;;
22650;SDS011;11492;42.646;23.400;2023-02-27T07:23:50;9.15;;;5.22;;
22650;SDS011;11492;42.646;23.400;2023-02-27T07:26:15;9.15;;;5.25;;
22650;SDS011;11492;42.646;23.400;2023-02-27T07:28:41;13.00;;;4.60;;
22650;SDS011;11492;42.646;23.400;2023-02-27T07:31:06;8.85;;;4.57;;
22650;SDS011;11492;42.646;23.400;2023-02-27T07:33:32;15.85;;;4.65;;
22650;SDS011;11492;42.646;23.400;2023-02-27T07:35:58;8.80;;;4.90;;
22650;SDS011;11492;42.646;23.400;2023-02-27T07:38:24;12.93;;;5.03;;
22650;SDS011;11492;42.646;23.400;2023-02-27T07:40:51;10.20;;;5.97;;
22650;SDS011;11492;42.646;23.400;2023-02-27T07:43:17;15.95;;;4.93;;
22650;SDS011;11492;42.646;23.400;2023-02-27T07:45:43;10.60;;;4.70;;
22650;SDS011;11492;42.646;23.400;2023-02-27T07:48:09;11.90;;;4.53;;
22650;SDS011;11492;42.646;23.400;2023-02-27T07:50:35;11.88;;;4.45;;
22650;SDS011;11492;42.646;23.400;2023-02-27T07:53:00;10.57;;;5.03;;
22650;SDS011;11492;42.646;23.400;2023-02-27T07:55:26;12.68;;;4.65;;
22650;SDS011;11492;42.646;23.400;2023-02-27T07:57:51;7.30;;;4.57;;
22650;SDS011;11492;42.646;23.400;2023-02-27T08:00:17;9.70;;;4.82;;
22650;SDS011;11492;42.646;23.400;2023-02-27T08:02:42;8.82;;;5.10;;
22650;SDS011;11492;42.646;23.400;2023-02-27T08:05:08;9.10;;;5.13;;
22650;SDS011;11492;42.646;23.400;2023-02-27T08:07:34;13.98;;;4.80;;
22650;SDS011;11492;42.646;23.400;2023-02-27T08:10:00;15.10;;;5.40;;
22650;SDS011;11492;42.646;23.400;2023-02-27T08:12:27;14.18;;;5.35;;
22650;SDS011;11492;42.646;23.400;2023-02-27T08:14:52;17.95;;;5.82;;
22650;SDS011;11492;42.646;23.400;2023-02-27T08:17:17;11.90;;;5.38;;
22650;SDS011;11492;42.646;23.400;2023-02-27T08:19:43;19.60;;;6.22;;
22650;SDS011;11492;42.646;23.400;2023-02-27T08:22:08;13.80;;;5.90;;
22650;SDS011;11492;42.646;23.400;2023-02-27T08:24:34;13.55;;;5.78;;
22650;SDS011;11492;42.646;23.400;2023-02-27T08:26:59;14.25;;;5.40;;
22650;SDS011;11492;42.646;23.400;2023-02-27T08:29:25;15.45;;;5.72;;
22650;SDS011;11492;42.646;23.400;2023-02-27T08:31:51;12.77;;;5.05;;
22650;SDS011;11492;42.646;23.400;2023-02-27T08:34:17;19.48;;;5.57;;
22650;SDS011;11492;42.646;23.400;2023-02-27T08:36:42;10.85;;;5.00;;
22650;SDS011;11492;42.646;23.400;2023-02-27T08:39:08;12.15;;;4.55;;
22650;SDS011;11492;42.646;23.400;2023-02-27T08:41:33;8.93;;;4.13;;
22650;SDS011;11492;42.646;23.400;2023-02-27T08:43:59;12.30;;;4.38;;
22650;SDS011;11492;42.646;23.400;2023-02-27T08:46:25;13.75;;;4.70;;
22650;SDS011;11492;42.646;23.400;2023-02-27T08:48:50;16.25;;;5.70;;
22650;SDS011;11492;42.646;23.400;2023-02-27T08:51:16;18.77;;;4.95;;
22650;SDS011;11492;42.646;23.400;2023-02-27T08:53:41;13.80;;;5.22;;
22650;SDS011;11492;42.646;23.400;2023-02-27T08:56:07;15.07;;;5.00;;
22650;SDS011;11492;42.646;23.400;2023-02-27T08:58:32;13.30;;;4.95;;
22650;SDS011;11492;42.646;23.400;2023-02-27T09:01:00;11.85;;;5.28;;
22650;SDS011;11492;42.646;23.400;2023-02-27T09:03:25;14.73;;;4.53;;
22650;SDS011;11492;42.646;23.400;2023-02-27T09:05:52;10.20;;;4.22;;
22650;SDS011;11492;42.646;23.400;2023-02-27T09:08:19;15.60;;;4.55;;
22650;SDS011;11492;42.646;23.400;2023-02-27T09:10:45;15.70;;;4.68;;
22650;SDS011;11492;42.646;23.400;2023-02-27T09:13:11;12.45;;;4.38;;
22650;SDS011;11492;42.646;23.400;2023-02-27T09:15:36;11.75;;;4.15;;
22650;SDS011;11492;42.646;23.400;2023-02-27T09:18:02;12.32;;;3.75;;
22650;SDS011;11492;42.646;23.400;2023-02-27T09:20:30;10.60;;;3.83;;
22650;SDS011;11492;42.646;23.400;2023-02-27T09:22:56;24.10;;;4.82;;
22650;SDS011;11492;42.646;23.400;2023-02-27T09:25:23;10.07;;;4.38;;
22650;SDS011;11492;42.646;23.400;2023-02-27T09:27:48;9.43;;;3.70;;
22650;SDS011;11492;42.646;23.400;2023-02-27T09:30:14;11.73;;;4.30;;
22650;SDS011;11492;42.646;23.400;2023-02-27T09:32:39;18.05;;;4.50;;
22650;SDS011;11492;42.646;23.400;2023-02-27T09:35:05;15.38;;;4.22;;
22650;SDS011;11492;42.646;23.400;2023-02-27T09:37:31;13.13;;;5.40;;
22650;SDS011;11492;42.646;23.400;2023-02-27T09:39:56;18.00;;;6.05;;
22650;SDS011;11492;42.646;23.400;2023-02-27T09:42:23;18.48;;;6.50;;
22650;SDS011;11492;42.646;23.400;2023-02-27T09:49:58;18.05;;;4.75;;
22650;SDS011;11492;42.646;23.400;2023-02-27T09:52:32;14.70;;;4.57;;
22650;SDS011;11492;42.646;23.400;2023-02-27T09:55:01;17.50;;;5.07;;
22650;SDS011;11492;42.646;23.400;2023-02-27T09:57:48;16.77;;;5.85;;
22650;SDS011;11492;42.646;23.400;2023-02-27T10:05:52;14.30;;;4.97;;
22650;SDS011;11492;42.646;23.400;2023-02-27T10:08:28;10.02;;;4.80;;
22650;SDS011;11492;42.646;23.400;2023-02-27T10:11:14;13.55;;;5.10;;
22650;SDS011;11492;42.646;23.400;2023-02-27T10:13:49;17.38;;;4.75;;
22650;SDS011;11492;42.646;23.400;2023-02-27T10:16:24;15.07;;;5.00;;
22650;SDS011;11492;42.646;23.400;2023-02-27T10:18:57;12.70;;;4.75;;
22650;SDS011;11492;42.646;23.400;2023-02-27T10:21:33;18.13;;;5.03;;
22650;SDS011;11492;42.646;23.400;2023-02-27T10:24:05;9.75;;;5.32;;
22650;SDS011;11492;42.646;23.400;2023-02-27T10:26:36;14.95;;;5.20;;
22650;SDS011;11492;42.646;23.400;2023-02-27T10:29:16;18.35;;;5.07;;
22650;SDS011;11492;42.646;23.400;2023-02-27T10:31:45;16.52;;;4.82;;
22650;SDS011;11492;42.646;23.400;2023-02-27T10:34:16;10.18;;;4.78;;
22650;SDS011;11492;42.646;23.400;2023-02-27T10:36:44;13.13;;;4.35;;
22650;SDS011;11492;42.646;23.400;2023-02-27T10:39:12;13.52;;;4.80;;
22650;SDS011;11492;42.646;23.400;2023-02-27T10:41:42;10.70;;;5.00;;
22650;SDS011;11492;42.646;23.400;2023-02-27T10:44:12;13.90;;;4.60;;
22650;SDS011;11492;42.646;23.400;2023-02-27T10:46:40;8.98;;;4.00;;
22650;SDS011;11492;42.646;23.400;2023-02-27T10:49:11;11.60;;;4.28;;
22650;SDS011;11492;42.646;23.400;2023-02-27T10:51:42;9.18;;;4.00;;
22650;SDS011;11492;42.646;23.400;2023-02-27T10:56:53;10.10;;;4.03;;
22650;SDS011;11492;42.646;23.400;2023-02-27T10:59:27;12.73;;;4.32;;
22650;SDS011;11492;42.646;23.400;2023-02-27T11:06:58;14.02;;;2.85;;
22650;SDS011;11492;42.646;23.400;2023-02-27T11:09:32;9.73;;;2.88;;
22650;SDS011;11492;42.646;23.400;2023-02-27T11:14:49;11.30;;;2.88;;
22650;SDS011;11492;42.646;23.400;2023-02-27T11:17:25;8.07;;;2.55;;
22650;SDS011;11492;42.646;23.400;2023-02-27T11:19:52;11.52;;;3.20;;
22650;SDS011;11492;42.646;23.400;2023-02-27T11:22:22;8.35;;;3.63;;
22650;SDS011;11492;42.646;23.400;2023-02-27T11:24:50;12.32;;;3.78;;
22650;SDS011;11492;42.646;23.400;2023-02-27T11:27:19;8.32;;;3.72;;
22650;SDS011;11492;42.646;23.400;2023-02-27T11:30:00;9.43;;;3.67;;
22650;SDS011;11492;42.646;23.400;2023-02-27T11:32:42;10.50;;;3.90;;
22650;SDS011;11492;42.646;23.400;2023-02-27T11:37:48;13.57;;;3.90;;
22650;SDS011;11492;42.646;23.400;2023-02-27T11:40:15;11.18;;;3.90;;
22650;SDS011;11492;42.646;23.400;2023-02-27T11:42:44;7.38;;;3.70;;
22650;SDS011;11492;42.646;23.400;2023-02-27T11:47:48;17.17;;;3.85;;
22650;SDS011;11492;42.646;23.400;2023-02-27T11:56:12;12.07;;;3.90;;
22650;SDS011;11492;42.646;23.400;2023-02-27T11:59:22;12.18;;;3.90;;
22650;SDS011;11492;42.646;23.400;2023-02-27T12:12:05;17.67;;;3.30;;
22650;SDS011;11492;42.646;23.400;2023-02-27T12:14:49;14.95;;;4.40;;
22650;SDS011;11492;42.646;23.400;2023-02-27T12:20:01;20.25;;;5.70;;
22650;SDS011;11492;42.646;23.400;2023-02-27T12:22:45;20.33;;;5.28;;
22650;SDS011;11492;42.646;23.400;2023-02-27T12:27:53;24.83;;;5.68;;
22650;SDS011;11492;42.646;23.400;2023-02-27T12:30:21;20.52;;;5.10;;
22650;SDS011;11492;42.646;23.400;2023-02-27T12:32:59;11.77;;;5.10;;
22650;SDS011;11492;42.646;23.400;2023-02-27T12:35:29;23.90;;;5.45;;
22650;SDS011;11492;42.646;23.400;2023-02-27T12:37:57;14.10;;;5.22;;
22650;SDS011;11492;42.646;23.400;2023-02-27T12:49:32;19.67;;;5.22;;
22650;SDS011;11492;42.646;23.400;2023-02-27T12:52:24;19.85;;;5.45;;
22650;SDS011;11492;42.646;23.400;2023-02-27T13:00:33;18.77;;;4.88;;
22650;SDS011;11492;42.646;23.400;2023-02-27T13:03:55;21.05;;;4.80;;
22650;SDS011;11492;42.646;23.400;2023-02-27T13:06:28;22.35;;;4.97;;
22650;SDS011;11492;42.646;23.400;2023-02-27T13:08:59;17.52;;;4.97;;
22650;SDS011;11492;42.646;23.400;2023-02-27T13:14:00;19.42;;;5.10;;
22650;SDS011;11492;42.646;23.400;2023-02-27T13:16:35;21.65;;;4.80;;
22650;SDS011;11492;42.646;23.400;2023-02-27T13:19:15;20.08;;;5.15;;
22650;SDS011;11492;42.646;23.400;2023-02-27T13:22:14;20.08;;;5.38;;
22650;SDS011;11492;42.646;23.400;2023-02-27T13:24:52;17.95;;;5.32;;
22650;SDS011;11492;42.646;23.400;2023-02-27T13:27:22;19.13;;;6.35;;
22650;SDS011;11492;42.646;23.400;2023-02-27T13:32:34;20.13;;;6.35;;
22650;SDS011;11492;42.646;23.400;2023-02-27T13:35:12;18.33;;;6.10;;
22650;SDS011;11492;42.646;23.400;2023-02-27T13:43:27;25.70;;;6.65;;
22650;SDS011;11492;42.646;23.400;2023-02-27T13:46:20;22.02;;;6.68;;
22650;SDS011;11492;42.646;23.400;2023-02-27T13:49:35;20.70;;;7.00;;
22650;SDS011;11492;42.646;23.400;2023-02-27T13:51:50;15.52;;;7.15;;
22650;SDS011;11492;42.646;23.400;2023-02-27T13:54:19;21.40;;;6.40;;
22650;SDS011;11492;42.646;23.400;2023-02-27T13:57:04;20.80;;;6.22;;
22650;SDS011;11492;42.646;23.400;2023-02-27T13:59:34;15.63;;;6.13;;
22650;SDS011;11492;42.646;23.400;2023-02-27T14:02:02;17.63;;;6.63;;
22650;SDS011;11492;42.646;23.400;2023-02-27T14:04:31;16.42;;;6.53;;
22650;SDS011;11492;42.646;23.400;2023-02-27T14:07:08;16.08;;;6.75;;
22650;SDS011;11492;42.646;23.400;2023-02-27T14:09:37;19.40;;;6.90;;
22650;SDS011;11492;42.646;23.400;2023-02-27T14:12:17;16.27;;;7.07;;
22650;SDS011;11492;42.646;23.400;2023-02-27T14:14:56;20.48;;;6.97;;
22650;SDS011;11492;42.646;23.400;2023-02-27T14:20:05;21.95;;;6.72;;
22650;SDS011;11492;42.646;23.400;2023-02-27T14:25:54;15.48;;;7.00;;
22650;SDS011;11492;42.646;23.400;2023-02-27T14:28:42;21.00;;;7.43;;
22650;SDS011;11492;42.646;23.400;2023-02-27T14:31:29;22.30;;;7.88;;
22650;SDS011;11492;42.646;23.400;2023-02-27T14:33:56;18.67;;;7.90;;
22650;SDS011;11492;42.646;23.400;2023-02-27T14:36:29;15.77;;;7.05;;
22650;SDS011;11492;42.646;23.400;2023-02-27T14:38:59;18.23;;;6.90;;
22650;SDS011;11492;42.646;23.400;2023-02-27T14:41:46;15.55;;;6.40;;
22650;SDS011;11492;42.646;23.400;2023-02-27T14:44:25;15.65;;;7.28;;
22650;SDS011;11492;42.646;23.400;2023-02-27T14:46:53;14.63;;;7.45;;
22650;SDS011;11492;42.646;23.400;2023-02-27T14:51:46;20.20;;;7.63;;
22650;SDS011;11492;42.646;23.400;2023-02-27T14:54:13;16.25;;;7.65;;
22650;SDS011;11492;42.646;23.400;2023-02-27T14:57:01;16.65;;;7.68;;
22650;SDS011;11492;42.646;23.400;2023-02-27T14:59:41;17.80;;;7.55;;
22650;SDS011;11492;42.646;23.400;2023-02-27T15:07:24;16.95;;;6.88;;
22650;SDS011;11492;42.646;23.400;2023-02-27T15:09:57;12.27;;;6.38;;
22650;SDS011;11492;42.646;23.400;2023-02-27T15:12:26;14.40;;;6.93;;
22650;SDS011;11492;42.646;23.400;2023-02-27T15:14:53;16.55;;;7.00;;
22650;SDS011;11492;42.646;23.400;2023-02-27T15:17:41;19.63;;;7.65;;
22650;SDS011;11492;42.646;23.400;2023-02-27T15:22:54;16.27;;;8.00;;
22650;SDS011;11492;42.646;23.400;2023-02-27T15:25:29;15.32;;;7.78;;
22650;SDS011;11492;42.646;23.400;2023-02-27T15:28:01;20.60;;;8.07;;
22650;SDS011;11492;42.646;23.400;2023-02-27T15:30:29;21.08;;;8.73;;
22650;SDS011;11492;42.646;23.400;2023-02-27T15:32:55;20.98;;;8.90;;
22650;SDS011;11492;42.646;23.400;2023-02-27T15:35:24;17.10;;;9.35;;
22650;SDS011;11492;42.646;23.400;2023-02-27T15:37:56;17.55;;;9.40;;
22650;SDS011;11492;42.646;23.400;2023-02-27T15:40:24;22.45;;;9.40;;
22650;SDS011;11492;42.646;23.400;2023-02-27T15:42:52;20.98;;;9.68;;
22650;SDS011;11492;42.646;23.400;2023-02-27T15:45:20;20.20;;;9.63;;
22650;SDS011;11492;42.646;23.400;2023-02-27T15:47:49;26.95;;;10.73;;
22650;SDS011;11492;42.646;23.400;2023-02-27T15:55:34;24.98;;;11.65;;
22650;SDS011;11492;42.646;23.400;2023-02-27T15:58:05;27.50;;;12.10;;
22650;SDS011;11492;42.646;23.400;2023-02-27T16:00:43;31.27;;;13.77;;
22650;SDS011;11492;42.646;23.400;2023-02-27T16:03:10;27.25;;;14.98;;
22650;SDS011;11492;42.646;23.400;2023-02-27T16:05:41;30.08;;;15.20;;
22650;SDS011;11492;42.646;23.400;2023-02-27T16:08:07;30.95;;;13.45;;
22650;SDS011;11492;42.646;23.400;2023-02-27T16:10:42;25.50;;;14.10;;
22650;SDS011;11492;42.646;23.400;2023-02-27T16:15:56;25.05;;;11.80;;
22650;SDS011;11492;42.646;23.400;2023-02-27T16:18:31;18.35;;;10.40;;
22650;SDS011;11492;42.646;23.400;2023-02-27T16:26:41;20.55;;;10.63;;
22650;SDS011;11492;42.646;23.400;2023-02-27T16:29:25;21.90;;;10.35;;
22650;SDS011;11492;42.646;23.400;2023-02-27T16:35:02;24.15;;;10.63;;
22650;SDS011;11492;42.646;23.400;2023-02-27T16:40:09;18.20;;;9.68;;
22650;SDS011;11492;42.646;23.400;2023-02-27T16:42:38;22.30;;;10.98;;
22650;SDS011;11492;42.646;23.400;2023-02-27T16:45:05;25.25;;;12.73;;
22650;SDS011;11492;42.646;23.400;2023-02-27T16:47:38;23.98;;;11.10;;
22650;SDS011;11492;42.646;23.400;2023-02-27T16:50:04;19.83;;;10.65;;
22650;SDS011;11492;42.646;23.400;2023-02-27T16:52:46;22.23;;;11.10;;
22650;SDS011;11492;42.646;23.400;2023-02-27T16:55:11;19.00;;;10.50;;
22650;SDS011;11492;42.646;23.400;2023-02-27T16:57:37;24.48;;;10.82;;
22650;SDS011;11492;42.646;23.400;2023-02-27T17:00:03;19.38;;;10.35;;
22650;SDS011;11492;42.646;23.400;2023-02-27T17:02:33;20.25;;;11.00;;
22650;SDS011;11492;42.646;23.400;2023-02-27T17:04:58;23.27;;;11.63;;
22650;SDS011;11492;42.646;23.400;2023-02-27T17:07:24;23.05;;;10.52;;
22650;SDS011;11492;42.646;23.400;2023-02-27T17:09:49;19.55;;;11.18;;
22650;SDS011;11492;42.646;23.400;2023-02-27T17:12:15;20.13;;;9.93;;
22650;SDS011;11492;42.646;23.400;2023-02-27T17:14:41;22.05;;;10.07;;
22650;SDS011;11492;42.646;23.400;2023-02-27T17:17:06;21.48;;;10.88;;
22650;SDS011;11492;42.646;23.400;2023-02-27T17:19:34;53.72;;;21.30;;
22650;SDS011;11492;42.646;23.400;2023-02-27T17:22:00;39.13;;;15.57;;
22650;SDS011;11492;42.646;23.400;2023-02-27T17:24:25;32.30;;;14.65;;
22650;SDS011;11492;42.646;23.400;2023-02-27T17:26:51;35.88;;;15.18;;
22650;SDS011;11492;42.646;23.400;2023-02-27T17:29:16;28.67;;;14.13;;
22650;SDS011;11492;42.646;23.400;2023-02-27T17:31:42;29.42;;;12.98;;
22650;SDS011;11492;42.646;23.400;2023-02-27T17:34:08;28.33;;;13.65;;
22650;SDS011;11492;42.646;23.400;2023-02-27T17:36:34;24.23;;;13.13;;
22650;SDS011;11492;42.646;23.400;2023-02-27T17:39:00;30.58;;;13.38;;
22650;SDS011;11492;42.646;23.400;2023-02-27T17:41:26;28.02;;;13.18;;
22650;SDS011;11492;42.646;23.400;2023-02-27T17:43:53;28.23;;;13.57;;